createdAt,value
2023-01-03T00:01:08.448Z,50.79
2023-01-03T00:02:40.046Z,51.26
2023-01-03T00:04:11.686Z,51.10
2023-01-03T00:05:43.852Z,51.42
2023-01-03T00:07:15.370Z,51.86
2023-01-03T00:08:46.996Z,50.99
2023-01-03T00:10:18.648Z,51.25
2023-01-03T00:12:08.966Z,51.96
2023-01-03T00:13:40.514Z,51.11
2023-01-03T00:15:15.788Z,51.89
2023-01-03T00:16:48.671Z,51.17
2023-01-03T00:18:20.242Z,51.44
2023-01-03T00:19:51.711Z,51.02
2023-01-03T00:21:23.242Z,51.57
2023-01-03T00:22:54.762Z,51.09
2023-01-03T00:24:26.273Z,51.38
2023-01-03T00:25:57.847Z,51.25
2023-01-03T00:27:29.505Z,51.32
2023-01-03T00:29:01.071Z,51.56
2023-01-03T00:30:32.696Z,51.39
2023-01-03T00:32:04.410Z,51.56
2023-01-03T00:33:36.778Z,51.74
2023-01-03T00:35:08.697Z,52.24
2023-01-03T00:36:40.334Z,51.60
2023-01-03T00:38:11.920Z,52.01
2023-01-03T00:39:44.077Z,52.33
2023-01-03T00:41:16.355Z,51.75
2023-01-03T00:43:06.517Z,51.95
2023-01-03T00:44:38.098Z,52.23
2023-01-03T00:46:10.089Z,51.83
2023-01-03T00:47:41.734Z,52.39
2023-01-03T00:49:13.656Z,51.94
2023-01-03T00:50:45.194Z,52.17
2023-01-03T00:52:16.850Z,52.52
2023-01-03T00:53:48.797Z,52.47
2023-01-03T00:55:20.307Z,51.76
2023-01-03T00:56:52.106Z,52.86
2023-01-03T00:58:23.568Z,51.96
2023-01-03T00:59:55.067Z,52.94
2023-01-03T01:01:28.144Z,52.11
2023-01-03T01:02:59.876Z,52.75
2023-01-03T01:04:31.606Z,52.89
2023-01-03T01:06:16.828Z,52.09
2023-01-03T01:07:48.281Z,52.51
2023-01-03T01:09:23.487Z,52.57
2023-01-03T01:11:04.062Z,52.89
2023-01-03T01:12:35.571Z,53.03
2023-01-03T01:14:22.471Z,53.15
2023-01-03T01:15:54.033Z,53.08
2023-01-03T01:17:28.349Z,52.61
2023-01-03T01:19:00.132Z,53.08
2023-01-03T01:20:31.615Z,52.83
2023-01-03T01:22:03.200Z,53.07
2023-01-03T01:23:35.064Z,53.01
2023-01-03T01:25:06.717Z,52.42
2023-01-03T01:26:38.331Z,53.19
2023-01-03T01:28:09.950Z,53.11
2023-01-03T01:29:41.739Z,53.25
2023-01-03T01:31:14.630Z,53.12
2023-01-03T01:32:46.176Z,52.94
2023-01-03T01:34:18.102Z,52.79
2023-01-03T01:35:49.647Z,53.28
2023-01-03T01:37:21.229Z,52.94
2023-01-03T01:38:54.376Z,52.98
2023-01-03T01:40:26.334Z,52.77
2023-01-03T01:42:23.179Z,52.72
2023-01-03T01:44:15.566Z,53.05
2023-01-03T01:45:47.056Z,53.06
2023-01-03T01:47:30.249Z,52.51
2023-01-03T01:49:02.689Z,52.87
2023-01-03T01:50:40.908Z,52.74
2023-01-03T01:52:13.167Z,52.91
2023-01-03T01:53:44.628Z,53.02
2023-01-03T01:55:16.992Z,53.49
2023-01-03T01:56:49.299Z,53.17
2023-01-03T01:58:21.359Z,53.11
2023-01-03T01:59:52.877Z,53.34
2023-01-03T02:01:24.772Z,53.17
2023-01-03T02:02:56.698Z,53.39
2023-01-03T02:04:29.567Z,53.57
2023-01-03T02:06:01.724Z,52.67
2023-01-03T02:07:34.255Z,53.16
2023-01-03T02:09:05.761Z,53.07
2023-01-03T02:10:45.459Z,53.17
2023-01-03T02:12:35.359Z,53.11
2023-01-03T02:14:10.119Z,53.39
2023-01-03T02:15:44.518Z,53.61
2023-01-03T02:17:20.933Z,53.08
2023-01-03T02:18:52.439Z,53.23
2023-01-03T02:20:23.962Z,53.21
2023-01-03T02:22:14.256Z,53.72
2023-01-03T02:23:53.115Z,53.42
2023-01-03T02:25:30.189Z,53.66
2023-01-03T02:27:05.299Z,53.57
2023-01-03T02:28:40.039Z,53.59
2023-01-03T02:30:15.002Z,53.58
2023-01-03T02:32:12.505Z,53.65
2023-01-03T02:34:10.644Z,53.30
2023-01-03T02:36:00.482Z,53.46
2023-01-03T02:37:50.912Z,53.39
2023-01-03T02:39:28.386Z,53.56
2023-01-03T02:41:12.091Z,53.59
2023-01-03T02:42:58.969Z,53.00
2023-01-03T02:44:32.540Z,53.36
2023-01-03T02:46:14.206Z,53.52
2023-01-03T02:47:50.463Z,53.53
2023-01-03T02:49:23.432Z,53.79
2023-01-03T02:50:55.237Z,53.35
2023-01-03T02:52:27.407Z,53.57
2023-01-03T02:53:58.924Z,53.74
2023-01-03T02:55:30.509Z,53.52
2023-01-03T02:57:03.648Z,53.97
2023-01-03T02:58:35.481Z,53.82
2023-01-03T03:00:11.071Z,53.92
2023-01-03T03:01:45.179Z,53.70
2023-01-03T03:03:17.977Z,54.24
2023-01-03T03:04:50.933Z,54.31
2023-01-03T03:06:25.689Z,54.35
2023-01-03T03:07:57.218Z,54.48
2023-01-03T03:09:29.689Z,54.42
2023-01-03T03:11:19.665Z,54.27
2023-01-03T03:13:09.820Z,54.48
2023-01-03T03:14:48.322Z,54.49
2023-01-03T03:16:42.384Z,54.48
2023-01-03T03:18:18.529Z,54.48
2023-01-03T03:20:10.789Z,54.42
2023-01-03T03:22:00.995Z,54.67
2023-01-03T03:23:51.821Z,54.60
2023-01-03T03:25:25.945Z,54.31
2023-01-03T03:26:58.084Z,54.46
2023-01-03T03:28:36.119Z,54.40
2023-01-03T03:30:08.642Z,54.33
2023-01-03T03:31:41.199Z,54.30
2023-01-03T03:33:13.166Z,54.60
2023-01-03T03:34:44.676Z,54.43
2023-01-03T03:36:37.174Z,54.53
2023-01-03T03:38:09.008Z,54.73
2023-01-03T03:39:59.153Z,54.84
2023-01-03T03:41:58.636Z,54.29
2023-01-03T03:43:50.069Z,54.08
2023-01-03T03:45:32.792Z,54.10
2023-01-03T03:47:07.960Z,54.18
2023-01-03T03:48:58.014Z,54.36
2023-01-03T03:50:35.503Z,54.53
2023-01-03T03:52:08.428Z,54.69
2023-01-03T03:53:39.889Z,55.01
2023-01-03T03:55:13.680Z,54.72
2023-01-03T03:56:46.625Z,54.85
2023-01-03T03:58:21.848Z,55.04
2023-01-03T03:59:55.375Z,54.99
2023-01-03T04:01:27.054Z,55.08
2023-01-03T04:02:59.518Z,55.13
2023-01-03T04:04:35.936Z,55.04
2023-01-03T04:06:09.450Z,55.33
2023-01-03T04:07:40.958Z,55.00
2023-01-03T04:09:12.540Z,54.71
2023-01-03T04:10:44.170Z,54.96
2023-01-03T04:12:15.758Z,54.94
2023-01-03T04:13:47.319Z,54.93
2023-01-03T04:15:18.896Z,54.84
2023-01-03T04:16:50.425Z,54.88
2023-01-03T04:18:22.043Z,54.77
2023-01-03T04:19:53.600Z,54.78
2023-01-03T04:21:25.179Z,55.00
2023-01-03T04:22:56.985Z,54.55
2023-01-03T04:24:28.556Z,54.82
2023-01-03T04:26:00.112Z,54.84
2023-01-03T04:27:31.614Z,55.16
2023-01-03T04:29:03.263Z,55.09
2023-01-03T04:30:35.211Z,55.42
2023-01-03T04:32:07.309Z,55.22
2023-01-03T04:33:39.516Z,55.46
2023-01-03T04:35:11.391Z,55.32
2023-01-03T04:36:42.932Z,55.01
2023-01-03T04:38:14.581Z,54.95
2023-01-03T04:39:46.168Z,54.70
2023-01-03T04:41:18.361Z,54.83
2023-01-03T04:43:08.580Z,54.48
2023-01-03T04:44:40.177Z,54.63
2023-01-03T04:46:11.889Z,54.55
2023-01-03T04:47:43.545Z,54.64
2023-01-03T04:49:15.454Z,54.68
2023-01-03T04:50:57.082Z,54.80
2023-01-03T04:52:29.056Z,55.00
2023-01-03T04:54:00.828Z,55.13
2023-01-03T04:55:32.342Z,55.13
2023-01-03T04:57:03.863Z,55.63
2023-01-03T04:58:35.419Z,55.42
2023-01-03T05:00:07.187Z,55.14
2023-01-03T05:01:38.961Z,55.36
2023-01-03T05:03:10.659Z,55.00
2023-01-03T05:04:42.294Z,55.17
2023-01-03T05:06:14.040Z,55.43
2023-01-03T05:07:45.503Z,55.33
2023-01-03T05:09:17.149Z,54.99
2023-01-03T05:10:48.773Z,55.27
2023-01-03T05:12:20.544Z,55.26
2023-01-03T05:13:52.162Z,55.67
2023-01-03T05:15:23.719Z,56.03
2023-01-03T05:16:55.323Z,55.23
2023-01-03T05:18:27.201Z,55.66
2023-01-03T05:20:17.653Z,55.71
2023-01-03T05:22:07.814Z,55.84
2023-01-03T05:23:57.993Z,55.81
2023-01-03T05:25:47.915Z,55.90
2023-01-03T05:27:19.457Z,55.90
2023-01-03T05:28:52.094Z,55.60
2023-01-03T05:30:23.853Z,56.05
2023-01-03T05:31:55.566Z,55.66
2023-01-03T05:33:27.212Z,55.67
2023-01-03T05:34:58.905Z,56.47
2023-01-03T05:36:30.415Z,56.21
2023-01-03T05:38:01.914Z,55.97
2023-01-03T05:39:33.359Z,55.60
2023-01-03T05:41:04.896Z,55.57
2023-01-03T05:42:36.438Z,56.02
2023-01-03T05:44:07.970Z,56.14
2023-01-03T05:45:39.655Z,55.66
2023-01-03T05:47:11.175Z,55.65
2023-01-03T05:48:43.530Z,56.05
2023-01-03T05:50:15.063Z,55.72
2023-01-03T05:51:46.512Z,55.80
2023-01-03T05:53:18.185Z,55.95
2023-01-03T05:54:49.736Z,55.81
2023-01-03T05:56:21.180Z,55.97
2023-01-03T05:57:53.013Z,55.94
2023-01-03T05:59:24.786Z,55.88
2023-01-03T06:00:56.319Z,56.17
2023-01-03T06:02:28.339Z,56.18
2023-01-03T06:03:59.943Z,56.12
2023-01-03T06:05:31.440Z,56.14
2023-01-03T06:07:02.981Z,55.44
2023-01-03T06:08:34.477Z,55.92
2023-01-03T06:10:06.221Z,55.29
2023-01-03T06:11:39.111Z,55.50
2023-01-03T06:13:10.707Z,55.48
2023-01-03T06:14:42.162Z,55.76
2023-01-03T06:16:35.223Z,55.86
2023-01-03T06:18:06.789Z,55.51
2023-01-03T06:19:38.315Z,55.61
2023-01-03T06:21:09.800Z,56.06
2023-01-03T06:22:41.288Z,56.11
2023-01-03T06:24:12.736Z,56.22
2023-01-03T06:25:44.268Z,56.49
2023-01-03T06:27:15.842Z,56.17
2023-01-03T06:28:47.411Z,55.84
2023-01-03T06:30:18.936Z,56.40
2023-01-03T06:31:50.426Z,56.48
2023-01-03T06:33:21.937Z,56.52
2023-01-03T06:34:53.565Z,56.60
2023-01-03T06:36:26.313Z,56.35
2023-01-03T06:37:57.814Z,56.15
2023-01-03T06:39:29.584Z,55.85
2023-01-03T06:41:01.119Z,56.38
2023-01-03T06:42:45.420Z,56.42
2023-01-03T06:44:16.959Z,55.85
2023-01-03T06:46:07.206Z,56.02
2023-01-03T06:47:57.317Z,56.29
2023-01-03T06:49:47.816Z,56.12
2023-01-03T06:51:38.441Z,55.97
2023-01-03T06:53:12.948Z,55.67
2023-01-03T06:54:44.510Z,55.68
2023-01-03T06:56:16.108Z,55.85
2023-01-03T06:57:47.613Z,55.76
2023-01-03T06:59:19.244Z,56.44
2023-01-03T07:00:50.703Z,56.34
2023-01-03T07:02:22.510Z,55.57
2023-01-03T07:03:54.264Z,55.96
2023-01-03T07:05:25.991Z,56.05
2023-01-03T07:06:57.648Z,56.19
2023-01-03T07:08:29.153Z,56.68
2023-01-03T07:10:00.585Z,56.42
2023-01-03T07:11:32.260Z,56.45
2023-01-03T07:13:22.527Z,56.98
2023-01-03T07:14:54.190Z,56.69
2023-01-03T07:16:27.111Z,56.56
2023-01-03T07:17:58.708Z,56.37
2023-01-03T07:19:30.410Z,56.77
2023-01-03T07:21:02.190Z,56.41
2023-01-03T07:22:33.736Z,56.29
2023-01-03T07:24:05.867Z,55.95
2023-01-03T07:25:41.551Z,56.26
2023-01-03T07:27:13.217Z,56.52
2023-01-03T07:28:44.835Z,56.68
2023-01-03T07:30:16.593Z,56.32
2023-01-03T07:31:48.164Z,56.39
2023-01-03T07:33:19.811Z,56.22
2023-01-03T07:34:51.393Z,55.99
2023-01-03T07:36:23.040Z,56.36
2023-01-03T07:37:54.633Z,56.60
2023-01-03T07:39:26.193Z,56.25
2023-01-03T07:40:58.587Z,56.46
2023-01-03T07:42:48.581Z,56.15
2023-01-03T07:44:20.202Z,56.48
2023-01-03T07:45:51.930Z,55.96
2023-01-03T07:47:23.620Z,56.10
2023-01-03T07:48:55.591Z,56.24
2023-01-03T07:50:27.129Z,56.07
2023-01-03T07:51:58.733Z,55.93
2023-01-03T07:53:31.968Z,56.15
2023-01-03T07:55:03.531Z,56.53
2023-01-03T07:56:35.185Z,56.70
2023-01-03T07:58:06.775Z,56.52
2023-01-03T07:59:38.450Z,56.47
2023-01-03T08:01:13.861Z,56.77
2023-01-03T08:02:45.701Z,56.76
2023-01-03T08:04:17.333Z,56.61
2023-01-03T08:05:48.878Z,56.57
2023-01-03T08:07:20.470Z,57.07
2023-01-03T08:09:12.157Z,56.75
2023-01-03T08:11:02.148Z,57.01
2023-01-03T08:12:52.043Z,56.80
2023-01-03T08:14:26.201Z,56.70
2023-01-03T08:15:58.751Z,56.91
2023-01-03T08:17:30.294Z,56.82
2023-01-03T08:19:01.923Z,56.93
2023-01-03T08:20:33.434Z,56.98
2023-01-03T08:22:05.115Z,56.70
2023-01-03T08:23:36.603Z,56.88
2023-01-03T08:25:08.384Z,56.49
2023-01-03T08:26:39.909Z,56.46
2023-01-03T08:28:14.484Z,56.49
2023-01-03T08:29:46.562Z,56.30
2023-01-03T08:31:18.827Z,56.19
2023-01-03T08:32:50.448Z,56.39
2023-01-03T08:34:29.135Z,56.45
2023-01-03T08:36:03.103Z,56.42
2023-01-03T08:37:34.604Z,56.71
2023-01-03T08:39:06.900Z,56.25
2023-01-03T08:40:42.107Z,56.58
2023-01-03T08:42:14.518Z,56.02
2023-01-03T08:43:45.981Z,56.21
2023-01-03T08:45:17.676Z,56.35
2023-01-03T08:46:49.901Z,56.25
2023-01-03T08:48:21.675Z,56.59
2023-01-03T08:49:53.297Z,56.48
2023-01-03T08:51:26.788Z,56.66
2023-01-03T08:52:58.461Z,56.54
2023-01-03T08:54:30.044Z,56.54
2023-01-03T08:56:01.571Z,56.76
2023-01-03T08:57:33.055Z,56.54
2023-01-03T08:59:04.858Z,56.41
2023-01-03T09:00:39.986Z,56.49
2023-01-03T09:02:11.728Z,56.83
2023-01-03T09:03:43.622Z,56.01
2023-01-03T09:05:15.825Z,56.22
2023-01-03T09:06:47.402Z,56.73
2023-01-03T09:08:18.944Z,56.37
2023-01-03T09:09:50.429Z,56.67
2023-01-03T09:11:21.921Z,56.21
2023-01-03T09:12:53.464Z,56.92
2023-01-03T09:14:25.043Z,57.02
2023-01-03T09:16:06.616Z,56.19
2023-01-03T09:17:38.230Z,56.28
2023-01-03T09:19:09.760Z,57.00
2023-01-03T09:20:41.527Z,56.58
2023-01-03T09:22:13.142Z,56.86
2023-01-03T09:23:44.754Z,56.76
2023-01-03T09:25:16.603Z,57.05
2023-01-03T09:26:54.210Z,57.02
2023-01-03T09:28:26.384Z,56.79
2023-01-03T09:29:57.881Z,56.13
2023-01-03T09:31:35.085Z,56.68
2023-01-03T09:33:06.850Z,56.26
2023-01-03T09:34:38.401Z,56.53
2023-01-03T09:36:11.504Z,56.13
2023-01-03T09:37:48.722Z,56.09
2023-01-03T09:39:20.589Z,56.13
2023-01-03T09:40:59.572Z,56.12
2023-01-03T09:42:49.621Z,56.69
2023-01-03T09:44:21.172Z,57.00
2023-01-03T09:45:53.435Z,56.80
2023-01-03T09:47:25.359Z,56.41
2023-01-03T09:48:57.062Z,56.26
2023-01-03T09:50:44.222Z,56.45
2023-01-03T09:52:40.162Z,56.60
2023-01-03T09:54:42.555Z,56.66
2023-01-03T09:56:32.645Z,56.67
2023-01-03T09:58:43.729Z,56.58
2023-01-03T10:00:38.061Z,56.45
2023-01-03T10:02:29.774Z,56.61
2023-01-03T10:04:23.319Z,56.59
2023-01-03T10:05:56.469Z,56.56
2023-01-03T10:07:28.169Z,56.85
2023-01-03T10:09:12.157Z,56.79
2023-01-03T10:10:43.684Z,56.91
2023-01-03T10:12:33.476Z,57.09
2023-01-03T10:14:15.347Z,56.81
2023-01-03T10:16:08.225Z,56.88
2023-01-03T10:17:48.979Z,56.61
2023-01-03T10:19:26.293Z,56.73
2023-01-03T10:21:03.595Z,56.79
2023-01-03T10:22:35.237Z,56.88
2023-01-03T10:24:25.684Z,56.79
2023-01-03T10:25:57.413Z,56.04
2023-01-03T10:27:30.131Z,55.92
2023-01-03T10:29:01.836Z,56.37
2023-01-03T10:30:59.436Z,56.19
2023-01-03T10:32:35.229Z,56.09
2023-01-03T10:34:07.120Z,55.75
2023-01-03T10:35:38.726Z,56.34
2023-01-03T10:37:19.870Z,55.35
2023-01-03T10:39:05.013Z,55.79
2023-01-03T10:40:42.635Z,55.38
2023-01-03T10:42:20.664Z,55.70
2023-01-03T10:44:01.850Z,55.75
2023-01-03T10:45:41.558Z,55.84
2023-01-03T10:47:16.756Z,55.21
2023-01-03T10:50:41.150Z,55.30
2023-01-03T10:52:14.805Z,56.08
2023-01-03T10:53:46.823Z,55.74
2023-01-03T10:55:19.166Z,55.25
2023-01-03T10:56:51.783Z,55.22
2023-01-03T10:58:27.994Z,55.81
2023-01-03T11:00:02.526Z,55.60
2023-01-03T11:01:34.256Z,55.18
2023-01-03T11:03:16.677Z,55.59
2023-01-03T11:04:48.499Z,55.38
2023-01-03T11:06:20.116Z,55.46
2023-01-03T11:07:55.385Z,55.31
2023-01-03T11:09:28.244Z,54.78
2023-01-03T11:10:59.954Z,54.98
2023-01-03T11:12:38.419Z,54.48
2023-01-03T11:14:10.148Z,54.52
2023-01-03T11:15:41.750Z,54.45
2023-01-03T11:17:16.500Z,54.32
2023-01-03T11:19:01.801Z,53.99
2023-01-03T11:20:37.276Z,53.82
2023-01-03T11:22:25.053Z,54.01
2023-01-03T11:24:11.610Z,53.87
2023-01-03T11:26:03.572Z,54.13
2023-01-03T11:27:38.247Z,53.76
2023-01-03T11:29:15.949Z,53.95
2023-01-03T11:30:47.612Z,53.40
2023-01-03T11:32:23.052Z,53.37
2023-01-03T11:34:06.356Z,53.12
2023-01-03T11:35:43.607Z,52.95
2023-01-03T11:37:18.165Z,53.17
2023-01-03T11:38:55.761Z,52.76
2023-01-03T11:40:34.061Z,52.57
2023-01-03T11:42:24.026Z,52.57
2023-01-03T11:44:04.091Z,52.07
2023-01-03T11:45:35.599Z,52.04
2023-01-03T11:47:15.538Z,52.23
2023-01-03T11:48:50.216Z,52.03
2023-01-03T11:50:40.808Z,51.59
2023-01-03T11:52:12.459Z,51.72
2023-01-03T11:53:49.740Z,51.70
2023-01-03T11:55:24.437Z,51.61
2023-01-03T11:56:56.166Z,51.52
2023-01-03T11:58:27.696Z,51.28
2023-01-03T12:00:09.137Z,51.36
2023-01-03T12:01:53.406Z,51.09
2023-01-03T12:03:31.210Z,51.18
2023-01-03T12:05:21.657Z,51.16
2023-01-03T12:07:36.748Z,50.79
2023-01-03T12:09:07.325Z,50.31
2023-01-03T12:10:42.158Z,49.97
2023-01-03T12:12:13.858Z,49.95
2023-01-03T12:13:55.385Z,49.91
2023-01-03T12:15:30.018Z,50.04
2023-01-03T12:17:21.853Z,49.81
2023-01-03T12:18:55.429Z,49.79
2023-01-03T12:20:28.351Z,49.79
2023-01-03T12:22:18.353Z,49.47
2023-01-03T12:23:52.887Z,49.33
2023-01-03T12:25:44.074Z,48.98
2023-01-03T12:27:18.094Z,49.01
2023-01-03T12:28:51.412Z,48.88
2023-01-03T12:30:34.046Z,48.70
2023-01-03T12:32:25.951Z,48.46
2023-01-03T12:34:21.420Z,48.56
2023-01-03T12:36:01.522Z,48.31
2023-01-03T12:37:34.057Z,47.91
2023-01-03T12:39:30.848Z,47.83
2023-01-03T12:41:22.855Z,47.62
2023-01-03T12:42:57.433Z,47.65
2023-01-03T12:44:36.401Z,47.49
2023-01-03T12:46:13.285Z,47.48
2023-01-03T12:47:45.425Z,47.04
2023-01-03T12:49:18.599Z,46.97
2023-01-03T12:50:50.627Z,46.87
2023-01-03T12:52:22.648Z,46.96
2023-01-03T12:54:05.065Z,46.84
2023-01-03T12:55:42.514Z,46.76
2023-01-03T12:57:17.188Z,46.42
2023-01-03T12:58:51.563Z,46.21
2023-01-03T13:00:38.054Z,46.20
2023-01-03T13:02:22.156Z,46.33
2023-01-03T13:03:55.799Z,45.88
2023-01-03T13:05:36.080Z,45.94
2023-01-03T13:07:16.028Z,45.50
2023-01-03T13:08:59.875Z,45.40
2023-01-03T13:10:32.183Z,45.77
2023-01-03T13:12:07.452Z,45.62
2023-01-03T13:13:39.075Z,45.55
2023-01-03T13:15:33.495Z,45.41
2023-01-03T13:17:15.692Z,45.29
2023-01-03T13:18:47.733Z,45.35
2023-01-03T13:20:25.203Z,45.40
2023-01-03T13:22:00.063Z,44.84
2023-01-03T13:23:52.411Z,44.79
2023-01-03T13:25:28.186Z,44.56
2023-01-03T13:27:17.900Z,44.43
2023-01-03T13:28:52.042Z,44.30
2023-01-03T13:30:24.384Z,44.63
2023-01-03T13:32:02.817Z,44.43
2023-01-03T13:33:42.392Z,44.21
2023-01-03T13:35:19.061Z,44.13
2023-01-03T13:37:02.949Z,44.31
2023-01-03T13:38:37.428Z,43.87
2023-01-03T13:40:52.137Z,43.76
2023-01-03T13:42:36.456Z,43.72
2023-01-03T13:44:15.939Z,43.60
2023-01-03T13:45:49.141Z,43.78
2023-01-03T13:47:26.737Z,43.60
2023-01-03T13:49:02.359Z,43.51
2023-01-03T13:50:34.631Z,43.54
2023-01-03T13:52:08.601Z,43.62
2023-01-03T13:54:01.004Z,43.42
2023-01-03T13:55:39.036Z,43.29
2023-01-03T13:57:30.407Z,43.14
2023-01-03T13:59:02.014Z,43.01
2023-01-03T14:00:33.590Z,42.74
2023-01-03T14:02:24.167Z,42.95
2023-01-03T14:03:58.724Z,42.81
2023-01-03T14:05:33.189Z,42.71
2023-01-03T14:07:13.561Z,42.83
2023-01-03T14:09:17.666Z,43.03
2023-01-03T14:10:49.276Z,42.80
2023-01-03T14:12:28.201Z,42.70
2023-01-03T14:14:01.119Z,42.69
2023-01-03T14:15:33.041Z,42.61
2023-01-03T14:17:04.988Z,42.58
2023-01-03T14:18:36.720Z,42.72
2023-01-03T14:20:09.765Z,42.45
2023-01-03T14:21:50.295Z,42.58
2023-01-03T14:23:58.616Z,42.56
2023-01-03T14:25:34.543Z,42.66
2023-01-03T14:27:11.500Z,42.67
2023-01-03T14:28:50.263Z,42.54
2023-01-03T14:30:22.582Z,42.62
2023-01-03T14:31:56.040Z,42.93
2023-01-03T14:33:47.862Z,42.59
2023-01-03T14:35:32.691Z,42.70
2023-01-03T14:37:05.721Z,42.74
2023-01-03T14:38:37.320Z,42.82
2023-01-03T14:40:18.871Z,42.60
2023-01-03T14:41:50.551Z,42.84
2023-01-03T14:43:22.111Z,42.69
2023-01-03T14:44:57.259Z,42.67
2023-01-03T14:46:29.494Z,42.57
2023-01-03T14:48:01.019Z,42.92
2023-01-03T14:49:32.510Z,42.84
2023-01-03T14:51:04.547Z,42.98
2023-01-03T14:52:38.434Z,42.86
2023-01-03T14:54:12.035Z,42.78
2023-01-03T14:55:46.794Z,42.75
2023-01-03T14:57:19.638Z,42.87
2023-01-03T14:58:51.296Z,43.13
2023-01-03T15:00:32.116Z,43.36
2023-01-03T15:02:12.274Z,43.43
2023-01-03T15:03:44.951Z,43.30
2023-01-03T15:05:25.754Z,43.34
2023-01-03T15:07:03.398Z,43.58
2023-01-03T15:08:39.664Z,43.25
2023-01-03T15:10:11.197Z,43.84
2023-01-03T15:11:59.542Z,43.63
2023-01-03T15:13:35.389Z,43.41
2023-01-03T15:15:08.021Z,43.70
2023-01-03T15:16:42.434Z,43.51
2023-01-03T15:18:20.261Z,44.02
2023-01-03T15:19:54.458Z,43.93
2023-01-03T15:21:26.213Z,43.92
2023-01-03T15:22:57.806Z,43.87
2023-01-03T15:24:29.327Z,43.80
2023-01-03T15:26:03.790Z,44.22
2023-01-03T15:27:37.934Z,44.21
2023-01-03T15:29:16.627Z,44.37
2023-01-03T15:30:49.241Z,44.39
2023-01-03T15:32:20.983Z,44.61
2023-01-03T15:34:22.004Z,44.64
2023-01-03T15:35:53.670Z,44.66
2023-01-03T15:37:25.438Z,44.67
2023-01-03T15:38:57.050Z,44.77
2023-01-03T15:40:31.590Z,44.67
2023-01-03T15:44:14.882Z,44.65
2023-01-03T15:45:48.390Z,44.70
2023-01-03T15:47:20.015Z,44.90
2023-01-03T15:48:54.977Z,45.15
2023-01-03T15:50:27.987Z,44.80
2023-01-03T15:51:59.811Z,45.11
2023-01-03T15:53:37.810Z,44.88
2023-01-03T15:55:13.178Z,45.15
2023-01-03T15:57:07.334Z,45.45
2023-01-03T15:58:38.940Z,45.66
2023-01-03T16:00:10.995Z,45.43
2023-01-03T16:01:42.923Z,45.68
2023-01-03T16:03:20.702Z,45.98
2023-01-03T16:04:53.182Z,46.27
2023-01-03T16:06:24.945Z,45.89
2023-01-03T16:07:56.594Z,45.80
2023-01-03T16:09:31.566Z,45.75
2023-01-03T16:11:04.240Z,46.10
2023-01-03T16:12:36.676Z,46.06
2023-01-03T16:14:36.761Z,45.64
2023-01-03T16:16:08.645Z,45.86
2023-01-03T16:17:40.765Z,46.18
2023-01-03T16:19:18.285Z,46.24
2023-01-03T16:20:49.835Z,46.27
2023-01-03T16:22:34.553Z,45.86
2023-01-03T16:24:06.957Z,45.91
2023-01-03T16:25:39.132Z,46.13
2023-01-03T16:27:16.810Z,46.10
2023-01-03T16:28:48.930Z,46.42
2023-01-03T16:30:20.635Z,46.04
2023-01-03T16:31:52.331Z,46.55
2023-01-03T16:33:24.004Z,46.64
2023-01-03T16:34:59.893Z,46.39
2023-01-03T16:36:36.587Z,45.95
2023-01-03T16:38:13.469Z,46.22
2023-01-03T16:39:48.265Z,46.39
2023-01-03T16:41:20.642Z,46.31
2023-01-03T16:42:52.495Z,46.59
2023-01-03T16:44:26.376Z,46.53
2023-01-03T16:45:58.744Z,46.28
2023-01-03T16:47:31.215Z,46.11
2023-01-03T16:49:02.768Z,46.24
2023-01-03T16:50:38.363Z,46.37
2023-01-03T16:52:13.087Z,46.45
2023-01-03T16:53:48.128Z,46.89
2023-01-03T16:55:23.667Z,46.81
2023-01-03T16:56:55.351Z,46.75
2023-01-03T16:58:27.377Z,46.87
2023-01-03T16:59:58.947Z,46.58
2023-01-03T17:01:30.901Z,47.10
2023-01-03T17:03:03.453Z,46.94
2023-01-03T17:04:35.220Z,46.52
2023-01-03T17:06:07.056Z,47.24
2023-01-03T17:07:39.117Z,47.11
2023-01-03T17:09:18.025Z,46.98
2023-01-03T17:10:50.876Z,47.21
2023-01-03T17:12:22.626Z,47.13
2023-01-03T17:13:55.598Z,46.82
2023-01-03T17:15:27.122Z,47.12
2023-01-03T17:16:58.718Z,47.21
2023-01-03T17:18:31.347Z,47.11
2023-01-03T17:20:06.823Z,46.61
2023-01-03T17:21:38.451Z,46.88
2023-01-03T17:23:10.202Z,46.61
2023-01-03T17:24:41.852Z,47.06
2023-01-03T17:26:17.453Z,46.79
2023-01-03T17:27:50.174Z,46.69
2023-01-03T17:29:24.396Z,46.69
2023-01-03T17:30:57.008Z,46.67
2023-01-03T17:32:28.890Z,46.90
2023-01-03T17:34:00.599Z,46.69
2023-01-03T17:35:32.354Z,47.04
2023-01-03T17:37:06.805Z,46.85
2023-01-03T17:38:38.445Z,47.28
2023-01-03T17:40:18.661Z,46.80
2023-01-03T17:42:09.556Z,47.00
2023-01-03T17:43:44.174Z,46.92
2023-01-03T17:45:34.481Z,47.06
2023-01-03T17:47:36.919Z,46.81
2023-01-03T17:49:32.288Z,46.84
2023-01-03T17:51:04.231Z,46.96
2023-01-03T17:52:36.339Z,47.43
2023-01-03T17:54:11.227Z,47.69
2023-01-03T17:55:46.539Z,46.88
2023-01-03T17:57:18.186Z,46.82
2023-01-03T17:58:55.617Z,47.48
2023-01-03T18:00:28.793Z,47.59
2023-01-03T18:02:00.608Z,47.97
2023-01-03T18:03:32.336Z,48.18
2023-01-03T18:05:26.591Z,47.62
2023-01-03T18:06:58.651Z,48.02
2023-01-03T18:08:32.679Z,48.19
2023-01-03T18:10:06.644Z,47.99
2023-01-03T18:11:38.321Z,47.93
2023-01-03T18:13:19.793Z,48.34
2023-01-03T18:14:51.491Z,48.30
2023-01-03T18:16:23.367Z,47.59
2023-01-03T18:17:55.204Z,48.47
2023-01-03T18:19:26.943Z,47.88
2023-01-03T18:20:58.881Z,48.00
2023-01-03T18:22:33.141Z,47.79
2023-01-03T18:24:05.761Z,48.25
2023-01-03T18:25:39.536Z,48.27
2023-01-03T18:27:11.414Z,47.49
2023-01-03T18:28:43.415Z,47.72
2023-01-03T18:30:15.799Z,47.86
2023-01-03T18:31:48.014Z,48.82
2023-01-03T18:33:19.807Z,47.75
2023-01-03T18:34:51.519Z,48.37
2023-01-03T18:36:29.622Z,48.63
2023-01-03T18:38:01.304Z,48.75
2023-01-03T18:39:33.146Z,48.75
2023-01-03T18:41:06.002Z,48.23
2023-01-03T18:42:56.413Z,48.36
2023-01-03T18:44:28.084Z,48.38
2023-01-03T18:45:59.841Z,48.84
2023-01-03T18:47:32.362Z,48.44
2023-01-03T18:49:04.091Z,48.42
2023-01-03T18:50:35.794Z,49.12
2023-01-03T18:52:07.403Z,49.08
2023-01-03T18:53:39.415Z,48.93
2023-01-03T18:55:15.227Z,49.16
2023-01-03T18:56:46.828Z,49.09
2023-01-03T18:58:24.390Z,49.15
2023-01-03T18:59:56.181Z,49.21
2023-01-03T19:01:27.892Z,49.48
2023-01-03T19:03:00.572Z,49.33
2023-01-03T19:04:32.356Z,49.10
2023-01-03T19:06:06.794Z,49.36
2023-01-03T19:07:39.128Z,49.68
2023-01-03T19:09:11.134Z,49.77
2023-01-03T19:10:42.643Z,49.55
2023-01-03T19:12:16.072Z,49.14
2023-01-03T19:13:52.017Z,49.64
2023-01-03T19:15:28.531Z,49.58
2023-01-03T19:17:00.110Z,49.44
2023-01-03T19:18:31.988Z,49.37
2023-01-03T19:20:03.629Z,49.61
2023-01-03T19:21:35.867Z,49.53
2023-01-03T19:23:07.435Z,49.56
2023-01-03T19:24:39.783Z,49.52
2023-01-03T19:26:30.194Z,49.02
2023-01-03T19:28:02.610Z,49.65
2023-01-03T19:29:37.181Z,49.42
2023-01-03T19:31:09.336Z,49.29
2023-01-03T19:32:40.905Z,49.42
2023-01-03T19:34:19.366Z,49.30
2023-01-03T19:35:51.071Z,48.92
2023-01-03T19:37:23.662Z,49.62
2023-01-03T19:38:55.401Z,49.65
2023-01-03T19:40:27.988Z,49.21
2023-01-03T19:42:18.465Z,49.51
2023-01-03T19:43:50.189Z,49.02
2023-01-03T19:45:24.107Z,48.98
2023-01-03T19:46:56.511Z,49.42
2023-01-03T19:48:28.115Z,49.17
2023-01-03T19:49:59.652Z,49.22
2023-01-03T19:51:31.315Z,49.82
2023-01-03T19:53:03.433Z,49.21
2023-01-03T19:54:35.347Z,49.57
2023-01-03T19:56:14.961Z,49.77
2023-01-03T19:57:47.089Z,50.00
2023-01-03T19:59:22.194Z,49.58
2023-01-03T20:00:53.788Z,49.84
2023-01-03T20:02:28.332Z,49.94
2023-01-03T20:04:00.071Z,50.30
2023-01-03T20:05:35.569Z,49.92
2023-01-03T20:07:13.537Z,50.06
2023-01-03T20:08:45.827Z,49.97
2023-01-03T20:10:21.852Z,49.91
2023-01-03T20:11:53.501Z,49.85
2023-01-03T20:13:25.555Z,50.33
2023-01-03T20:15:04.463Z,49.95
2023-01-03T20:16:38.417Z,50.57
2023-01-03T20:18:19.257Z,50.35
2023-01-03T20:19:51.013Z,50.17
2023-01-03T20:21:26.515Z,50.22
2023-01-03T20:23:05.687Z,50.13
2023-01-03T20:24:38.854Z,50.13
2023-01-03T20:26:29.497Z,50.35
2023-01-03T20:28:01.261Z,50.38
2023-01-03T20:29:32.921Z,50.41
2023-01-03T20:31:04.695Z,50.36
2023-01-03T20:32:36.677Z,50.31
2023-01-03T20:34:10.111Z,50.41
2023-01-03T20:37:33.161Z,50.80
2023-01-03T20:39:04.757Z,50.89